Time;durP1;ratioP1;P1;durP2;ratioP2;P2;SDS_P1;SDS_P2;PMS_P1;PMS_P2;Temp;Humidity;BMP_temperature;BMP_pressure;BME280_temperature;BME280_humidity;BME280_pressure;Samples;Min_cycle;Max_cycle;Signal;HPM_P1;HPM_P2
2023/07/01 03:01:44;;;;;;;3.38;2.50;;;25.70;46.40;;;;;;5358617;23;45907;-62
2023/07/01 03:04:11;;;;;;;3.35;2.42;;;25.70;46.40;;;;;;4946377;28;47022;-62
2023/07/01 03:06:37;;;;;;;3.05;2.45;;;25.70;46.40;;;;;;4931765;28;45773;-62
2023/07/01 03:09:07;;;;;;;2.53;2.22;;;25.70;46.40;;;;;;4976056;28;45335;-63
2023/07/01 03:11:35;;;;;;;3.03;2.40;;;25.70;46.50;;;;;;4945976;28;45504;-62
2023/07/01 03:14:01;;;;;;;3.53;2.40;;;25.70;46.50;;;;;;4975317;28;45920;-62
2023/07/01 03:16:26;;;;;;;3.15;2.40;;;25.70;46.50;;;;;;4962973;28;45911;-63
2023/07/01 03:18:52;;;;;;;3.60;2.58;;;25.70;46.40;;;;;;4967689;28;44834;-62
2023/07/01 03:21:17;;;;;;;3.85;2.88;;;25.70;46.50;;;;;;4970124;28;45203;-63
2023/07/01 03:23:43;;;;;;;3.13;2.53;;;25.70;46.50;;;;;;4973036;28;46503;-63
2023/07/01 03:26:08;;;;;;;3.08;2.42;;;25.70;46.50;;;;;;4968524;28;45840;-63
2023/07/01 03:28:34;;;;;;;3.75;2.60;;;25.70;46.60;;;;;;4946774;28;45482;-62
2023/07/01 03:30:59;;;;;;;3.55;3.00;;;25.70;46.50;;;;;;4962350;28;45161;-62
2023/07/01 03:33:25;;;;;;;3.22;2.38;;;25.70;46.50;;;;;;4954925;28;45482;-63
2023/07/01 03:35:50;;;;;;;4.28;3.00;;;25.70;46.50;;;;;;4970960;28;45248;-62
2023/07/01 03:38:16;;;;;;;2.67;2.30;;;25.70;46.50;;;;;;4971782;28;45410;-62
2023/07/01 03:40:41;;;;;;;3.05;2.53;;;25.70;46.60;;;;;;4966112;28;45630;-63
2023/07/01 03:43:07;;;;;;;3.92;2.85;;;25.70;46.60;;;;;;4968522;28;48308;-62
2023/07/01 03:45:32;;;;;;;4.75;2.90;;;25.70;46.60;;;;;;4947970;28;45079;-62
2023/07/01 03:47:58;;;;;;;3.15;2.20;;;25.70;46.60;;;;;;4956607;28;44987;-63
2023/07/01 03:50:23;;;;;;;5.03;3.03;;;25.70;46.70;;;;;;4970426;28;45717;-62
2023/07/01 03:52:49;;;;;;;4.45;2.85;;;25.70;46.70;;;;;;4971280;28;45963;-63
2023/07/01 03:55:14;;;;;;;3.00;2.70;;;25.70;46.70;;;;;;4952340;28;45439;-63
2023/07/01 03:57:40;;;;;;;4.30;2.83;;;25.70;46.60;;;;;;4968975;28;45527;-63
2023/07/01 04:00:17;;;;;;;3.05;2.60;;;25.70;46.70;;;;;;4947217;28;45632;-63
2023/07/01 04:02:52;;;;;;;3.50;2.42;;;25.70;46.70;;;;;;4949149;28;47447;-63
2023/07/01 04:05:18;;;;;;;3.92;2.70;;;25.70;46.80;;;;;;4951817;28;45536;-63
2023/07/01 04:07:45;;;;;;;3.70;2.75;;;25.70;46.80;;;;;;4943269;28;44945;-62
2023/07/01 04:10:10;;;;;;;3.20;2.42;;;25.70;46.70;;;;;;4969173;28;45388;-62
2023/07/01 04:12:37;;;;;;;3.95;2.42;;;25.70;46.80;;;;;;4940930;28;45977;-63
2023/07/01 04:15:08;;;;;;;3.20;2.70;;;25.70;46.80;;;;;;4968047;28;46471;-62
2023/07/01 04:17:34;;;;;;;4.57;2.80;;;25.70;46.80;;;;;;4933503;28;45270;-62
2023/07/01 04:19:59;;;;;;;2.83;2.53;;;25.70;46.90;;;;;;4973085;28;45570;-63
2023/07/01 04:22:25;;;;;;;3.65;2.90;;;25.70;46.90;;;;;;4968910;28;46194;-62
2023/07/01 04:24:50;;;;;;;3.38;2.90;;;25.70;46.90;;;;;;4956696;28;45381;-62
2023/07/01 04:27:16;;;;;;;4.38;3.05;;;25.70;46.80;;;;;;4947324;28;45193;-62
2023/07/01 04:29:41;;;;;;;4.32;2.72;;;25.70;46.80;;;;;;4950540;28;45480;-62
2023/07/01 04:32:07;;;;;;;3.78;2.78;;;25.70;46.90;;;;;;4957911;28;45587;-62
2023/07/01 04:34:33;;;;;;;3.63;2.60;;;25.70;46.90;;;;;;4973933;28;45290;-64
2023/07/01 04:36:58;;;;;;;3.53;2.83;;;25.70;46.90;;;;;;4951945;28;45351;-62
2023/07/01 04:39:24;;;;;;;4.78;3.13;;;25.70;47.00;;;;;;4969550;28;45293;-62
2023/07/01 04:41:49;;;;;;;3.35;2.90;;;25.70;47.00;;;;;;4948972;28;46268;-63
2023/07/01 04:44:15;;;;;;;3.78;3.08;;;25.70;47.10;;;;;;4955987;28;45286;-63
2023/07/01 04:46:40;;;;;;;3.75;3.17;;;25.70;47.10;;;;;;4941960;28;45678;-63
2023/07/01 04:49:08;;;;;;;3.45;2.70;;;25.70;47.00;;;;;;4954167;28;45540;-63
2023/07/01 04:51:34;;;;;;;4.43;3.30;;;25.70;47.10;;;;;;4966002;28;45253;-62
2023/07/01 04:54:01;;;;;;;4.10;2.90;;;25.70;47.20;;;;;;4973266;28;45004;-63
2023/07/01 04:56:26;;;;;;;3.13;2.30;;;25.70;47.20;;;;;;4967616;28;45314;-63
2023/07/01 04:58:53;;;;;;;3.50;2.70;;;25.60;47.10;;;;;;4924845;28;47284;-63
2023/07/01 05:01:19;;;;;;;2.80;2.50;;;25.70;47.20;;;;;;4961075;28;45515;-63
2023/07/01 05:03:45;;;;;;;3.38;2.60;;;25.70;47.30;;;;;;4966307;28;45354;-63
2023/07/01 05:06:10;;;;;;;3.22;2.58;;;25.70;47.30;;;;;;4950538;28;44714;-63
2023/07/01 05:08:36;;;;;;;2.85;2.50;;;25.70;47.30;;;;;;4972462;28;45702;-63
2023/07/01 05:11:01;;;;;;;6.30;3.20;;;25.70;47.40;;;;;;4952558;28;45950;-63
2023/07/01 05:13:27;;;;;;;3.67;3.00;;;25.70;47.40;;;;;;4972303;28;45310;-63
2023/07/01 05:15:52;;;;;;;3.45;2.92;;;25.70;47.40;;;;;;4965418;28;45250;-63
2023/07/01 05:18:18;;;;;;;3.80;2.97;;;25.70;47.50;;;;;;4952057;28;45366;-62
2023/07/01 05:20:43;;;;;;;4.95;3.38;;;25.70;47.50;;;;;;4949709;28;46849;-63
2023/07/01 05:23:09;;;;;;;4.35;2.90;;;25.70;47.60;;;;;;4973190;28;45450;-62
2023/07/01 05:25:34;;;;;;;3.38;2.60;;;25.70;47.60;;;;;;4972350;28;44704;-62
2023/07/01 05:28:00;;;;;;;4.43;3.17;;;25.70;47.50;;;;;;4956895;28;45437;-63
2023/07/01 05:30:26;;;;;;;3.75;2.92;;;25.70;47.60;;;;;;4968884;28;44856;-62
2023/07/01 05:32:51;;;;;;;4.75;3.20;;;25.60;47.50;;;;;;4970460;28;45216;-62
2023/07/01 05:35:17;;;;;;;4.00;2.50;;;25.70;47.60;;;;;;4964786;28;45328;-62
2023/07/01 05:37:42;;;;;;;3.90;2.90;;;25.70;47.70;;;;;;4967054;28;45896;-62
2023/07/01 05:40:08;;;;;;;4.38;2.75;;;25.60;47.70;;;;;;4972245;28;45713;-62
2023/07/01 05:42:34;;;;;;;3.83;3.05;;;25.60;47.60;;;;;;4955098;28;45499;-63
2023/07/01 05:44:59;;;;;;;5.10;3.08;;;25.60;47.60;;;;;;4973196;28;45203;-62
2023/07/01 05:47:25;;;;;;;4.75;2.90;;;25.60;47.80;;;;;;4961911;28;45252;-62
2023/07/01 05:49:50;;;;;;;4.18;3.30;;;25.60;47.80;;;;;;4974953;28;46082;-63
2023/07/01 05:52:16;;;;;;;4.35;3.45;;;25.60;47.80;;;;;;4964249;28;45449;-63
2023/07/01 05:54:41;;;;;;;4.70;3.30;;;25.60;48.00;;;;;;4954957;28;45201;-63
2023/07/01 05:57:07;;;;;;;4.55;3.40;;;25.60;47.90;;;;;;4950894;28;45316;-63
2023/07/01 05:59:32;;;;;;;5.20;3.67;;;25.60;47.90;;;;;;4972340;28;45461;-63
2023/07/01 06:01:58;;;;;;;6.68;4.30;;;25.60;47.90;;;;;;4959540;28;45449;-65
2023/07/01 06:04:23;;;;;;;5.65;3.45;;;25.60;48.00;;;;;;4971843;28;45235;-63
2023/07/01 06:06:49;;;;;;;5.40;4.07;;;25.60;48.10;;;;;;4957309;28;45272;-63
2023/07/01 06:09:15;;;;;;;4.30;3.50;;;25.60;48.00;;;;;;4972639;28;46821;-64
2023/07/01 06:11:41;;;;;;;4.22;3.67;;;25.60;48.10;;;;;;4967671;28;45195;-63
2023/07/01 06:14:06;;;;;;;5.38;3.90;;;25.60;48.00;;;;;;4939947;28;45538;-63
2023/07/01 06:16:32;;;;;;;5.78;4.25;;;25.60;47.90;;;;;;4943822;28;45482;-63
2023/07/01 06:18:57;;;;;;;7.07;4.20;;;25.60;48.00;;;;;;4970014;28;46123;-63
2023/07/01 06:21:23;;;;;;;6.93;4.28;;;25.60;47.90;;;;;;4950308;28;45287;-63
2023/07/01 06:23:48;;;;;;;7.03;4.68;;;25.60;47.80;;;;;;4966577;28;44724;-63
2023/07/01 06:26:14;;;;;;;5.22;4.15;;;25.60;47.70;;;;;;4951854;28;45599;-63
2023/07/01 06:28:39;;;;;;;7.07;4.10;;;25.60;47.60;;;;;;4957559;28;46035;-63
2023/07/01 06:31:05;;;;;;;5.30;4.13;;;25.60;47.30;;;;;;4963626;28;45429;-63
2023/07/01 06:33:40;;;;;;;5.38;3.78;;;25.60;47.20;;;;;;4959002;28;45622;-63
2023/07/01 06:36:06;;;;;;;4.68;2.90;;;25.60;47.10;;;;;;4949722;28;45626;-63
2023/07/01 06:38:32;;;;;;;4.32;3.58;;;25.60;46.90;;;;;;4960695;28;46182;-63
2023/07/01 06:40:57;;;;;;;4.82;3.35;;;25.60;46.80;;;;;;4954441;28;45785;-63
2023/07/01 06:43:23;;;;;;;5.55;3.22;;;25.60;46.60;;;;;;4949662;28;45339;-63
2023/07/01 06:45:48;;;;;;;4.10;3.10;;;25.60;46.30;;;;;;4961169;28;45345;-63
2023/07/01 06:48:14;;;;;;;4.90;2.95;;;25.60;46.20;;;;;;4965084;28;46403;-63
2023/07/01 06:50:39;;;;;;;4.07;2.63;;;25.70;46.00;;;;;;4965567;28;45141;-63
2023/07/01 06:53:05;;;;;;;5.95;2.63;;;25.70;45.80;;;;;;4968187;28;45810;-63
2023/07/01 06:55:31;;;;;;;4.10;2.67;;;25.70;45.40;;;;;;4965190;28;45477;-63
2023/07/01 06:57:57;;;;;;;6.28;3.28;;;25.70;45.10;;;;;;4954707;28;45492;-63
2023/07/01 07:00:22;;;;;;;4.65;2.85;;;25.70;44.90;;;;;;4957941;28;45280;-63
2023/07/01 07:02:48;;;;;;;3.35;2.38;;;25.60;44.80;;;;;;4938037;28;44977;-63
2023/07/01 07:05:14;;;;;;;4.45;2.75;;;25.70;44.70;;;;;;4966155;28;45459;-63
2023/07/01 07:07:39;;;;;;;4.32;2.70;;;25.70;44.40;;;;;;4969997;28;45383;-63
2023/07/01 07:10:05;;;;;;;3.92;2.47;;;25.70;44.20;;;;;;4969879;28;45351;-63
2023/07/01 07:12:31;;;;;;;4.20;2.38;;;25.70;44.00;;;;;;4936595;28;46137;-62
2023/07/01 07:14:57;;;;;;;5.78;2.35;;;25.70;43.90;;;;;;4968172;28;45145;-62
2023/07/01 07:17:22;;;;;;;5.53;2.40;;;25.70;43.60;;;;;;4959870;28;45394;-63
2023/07/01 07:19:47;;;;;;;3.85;2.05;;;25.80;43.60;;;;;;4975619;28;45299;-63
2023/07/01 07:22:13;;;;;;;4.82;2.38;;;25.80;43.30;;;;;;4968801;28;44842;-63
2023/07/01 07:24:39;;;;;;;3.83;2.10;;;25.80;43.20;;;;;;4977205;28;45999;-63
2023/07/01 07:27:05;;;;;;;3.10;2.05;;;25.80;43.00;;;;;;4968518;28;45999;-64
2023/07/01 07:29:31;;;;;;;3.67;1.92;;;25.80;42.90;;;;;;4969069;28;44988;-63
2023/07/01 07:31:57;;;;;;;2.22;1.67;;;25.90;42.80;;;;;;4930257;28;45004;-62
2023/07/01 07:34:23;;;;;;;3.25;1.92;;;25.90;42.70;;;;;;4944192;28;45578;-62
2023/07/01 07:36:48;;;;;;;3.47;1.88;;;26.00;42.60;;;;;;4967800;28;45713;-62
2023/07/01 07:39:14;;;;;;;3.38;1.98;;;26.00;42.30;;;;;;4978596;28;45686;-62
2023/07/01 07:41:40;;;;;;;2.08;1.48;;;26.10;41.90;;;;;;4969993;28;45232;-62
2023/07/01 07:44:06;;;;;;;3.17;1.77;;;26.00;41.60;;;;;;4972397;28;45377;-63
2023/07/01 07:46:32;;;;;;;2.25;1.60;;;26.10;41.40;;;;;;4959445;28;46125;-63
2023/07/01 07:48:58;;;;;;;4.10;1.42;;;26.10;41.00;;;;;;4957643;28;45668;-62
2023/07/01 07:51:23;;;;;;;2.70;1.40;;;26.10;40.80;;;;;;4971098;28;45523;-62
2023/07/01 07:53:49;;;;;;;2.40;1.40;;;26.10;40.50;;;;;;4956851;28;45405;-63
2023/07/01 07:56:14;;;;;;;1.98;1.40;;;26.10;40.40;;;;;;4965853;28;46173;-62
2023/07/01 07:58:40;;;;;;;2.85;1.42;;;26.10;40.20;;;;;;4958869;28;44771;-63
2023/07/01 08:01:05;;;;;;;2.67;1.23;;;26.10;40.10;;;;;;4960019;28;46659;-63
2023/07/01 08:03:31;;;;;;;2.22;1.15;;;26.10;39.90;;;;;;4972316;28;45677;-62
2023/07/01 08:05:56;;;;;;;3.67;1.20;;;26.20;39.70;;;;;;4970532;28;46092;-62
2023/07/01 08:08:22;;;;;;;2.88;1.13;;;26.20;39.40;;;;;;4978374;28;45333;-62
2023/07/01 08:10:48;;;;;;;2.65;1.30;;;26.20;39.00;;;;;;4966113;28;45425;-63
2023/07/01 08:13:14;;;;;;;1.85;1.00;;;26.20;39.00;;;;;;4956176;28;45534;-63
2023/07/01 08:15:43;;;;;;;4.22;1.20;;;26.30;38.80;;;;;;4967263;28;45928;-62
2023/07/01 08:18:09;;;;;;;3.47;1.23;;;26.30;38.80;;;;;;4962441;28;44932;-63
2023/07/01 08:20:34;;;;;;;3.92;1.13;;;26.30;38.50;;;;;;4969427;28;45670;-63
2023/07/01 08:23:00;;;;;;;1.75;1.13;;;26.30;38.10;;;;;;4937070;28;45662;-63
2023/07/01 08:25:25;;;;;;;3.45;1.25;;;26.30;38.00;;;;;;4968844;28;44853;-62
2023/07/01 08:27:51;;;;;;;5.90;1.33;;;26.30;37.90;;;;;;4959164;28;44972;-63
2023/07/01 08:30:17;;;;;;;2.30;0.98;;;26.30;37.80;;;;;;4937460;28;45246;-63
2023/07/01 08:32:42;;;;;;;1.83;1.05;;;26.30;37.60;;;;;;4956449;28;46548;-63
2023/07/01 08:35:08;;;;;;;4.10;1.30;;;26.30;37.40;;;;;;4969703;28;46430;-63
2023/07/01 08:37:34;;;;;;;1.98;0.93;;;26.30;37.20;;;;;;4953333;28;45462;-63
2023/07/01 08:40:00;;;;;;;1.95;0.93;;;26.30;37.20;;;;;;4967812;28;45591;-63
2023/07/01 08:42:40;;;;;;;1.25;0.90;;;26.30;37.10;;;;;;4952158;28;45515;-62
2023/07/01 08:45:06;;;;;;;1.70;0.82;;;26.30;36.30;;;;;;4948137;28;46311;-62
2023/07/01 08:47:32;;;;;;;1.98;0.93;;;26.30;36.90;;;;;;4917563;28;45460;-61
2023/07/01 08:49:58;;;;;;;1.67;0.82;;;26.40;36.90;;;;;;4948302;28;45375;-62
2023/07/01 08:52:23;;;;;;;1.17;0.77;;;26.40;36.90;;;;;;4918328;28;45278;-63
2023/07/01 08:54:49;;;;;;;2.83;1.00;;;26.40;36.80;;;;;;4969849;28;46589;-63
2023/07/01 08:57:15;;;;;;;1.70;0.90;;;26.40;36.70;;;;;;4943303;28;45683;-62
2023/07/01 08:59:42;;;;;;;2.78;1.00;;;26.40;36.60;;;;;;4969540;28;44737;-63
2023/07/01 09:02:07;;;;;;;2.60;0.90;;;26.40;36.40;;;;;;4958282;28;45896;-63
2023/07/01 09:04:35;;;;;;;2.25;1.00;;;26.40;36.50;;;;;;4961974;28;45832;-63
2023/07/01 09:07:00;;;;;;;2.35;1.15;;;26.40;36.40;;;;;;4960503;28;45255;-62
2023/07/01 09:09:26;;;;;;;1.90;0.95;;;26.40;36.20;;;;;;4969865;28;45251;-63
2023/07/01 09:11:51;;;;;;;1.42;0.88;;;26.40;36.20;;;;;;4944766;28;45270;-63
2023/07/01 09:14:17;;;;;;;3.03;0.98;;;26.40;36.10;;;;;;4965921;28;45013;-63
2023/07/01 09:16:42;;;;;;;1.52;0.80;;;26.40;36.00;;;;;;4945394;28;45495;-64
2023/07/01 09:19:14;;;;;;;1.95;0.90;;;26.40;35.80;;;;;;4964309;28;45927;-63
2023/07/01 09:21:40;;;;;;;2.63;1.10;;;26.40;35.70;;;;;;4959404;28;46369;-61
2023/07/01 09:24:06;;;;;;;2.25;0.82;;;26.40;35.80;;;;;;4950474;28;45229;-62
2023/07/01 09:26:32;;;;;;;1.85;0.90;;;26.40;35.80;;;;;;4940771;28;45517;-62
2023/07/01 09:28:58;;;;;;;1.95;0.70;;;26.40;35.80;;;;;;4947784;28;45447;-62
2023/07/01 09:31:25;;;;;;;1.40;0.85;;;26.40;35.60;;;;;;4960636;28;45330;-62
2023/07/01 09:34:02;;;;;;;3.67;0.93;;;26.50;35.70;;;;;;4967991;28;46062;-62
2023/07/01 09:36:29;;;;;;;2.00;1.10;;;26.50;35.10;;;;;;4940426;28;45422;-63
2023/07/01 09:38:54;;;;;;;2.03;0.80;;;26.50;35.60;;;;;;4947549;28;45073;-62
2023/07/01 09:41:23;;;;;;;0.98;0.63;;;26.50;35.50;;;;;;4947795;28;45255;-63
2023/07/01 09:43:48;;;;;;;1.05;0.90;;;26.50;35.50;;;;;;4949003;28;45592;-62
2023/07/01 09:46:14;;;;;;;1.05;0.90;;;26.50;35.50;;;;;;4958842;28;45823;-62
2023/07/01 09:48:59;;;;;;;1.60;0.90;;;26.60;35.50;;;;;;4947183;28;45620;-63
2023/07/01 09:51:25;;;;;;;1.67;0.82;;;26.60;34.80;;;;;;4945758;28;45760;-62
2023/07/01 09:53:51;;;;;;;1.08;0.80;;;26.50;35.40;;;;;;4962733;28;47509;-62
2023/07/01 09:56:17;;;;;;;3.08;0.93;;;26.60;35.40;;;;;;4946943;28;45555;-62
2023/07/01 09:58:44;;;;;;;0.90;0.80;;;26.60;35.30;;;;;;4921074;28;44707;-63
2023/07/01 10:01:13;;;;;;;1.30;0.90;;;26.50;35.30;;;;;;4952806;28;45462;-62
2023/07/01 10:03:41;;;;;;;1.63;0.80;;;26.60;35.10;;;;;;4953132;28;46804;-65
2023/07/01 10:06:07;;;;;;;2.17;0.82;;;26.60;35.30;;;;;;4938953;28;45284;-63
2023/07/01 10:08:33;;;;;;;3.17;0.80;;;26.60;35.10;;;;;;4964426;28;45357;-63
2023/07/01 10:11:09;;;;;;;2.20;0.95;;;26.60;35.10;;;;;;4960865;28;45719;-63
2023/07/01 10:13:42;;;;;;;1.38;1.10;;;26.60;34.90;;;;;;4952968;28;45700;-63
2023/07/01 10:16:08;;;;;;;1.33;0.77;;;26.60;34.70;;;;;;4938035;28;45108;-62
2023/07/01 10:18:34;;;;;;;1.60;0.90;;;26.60;35.00;;;;;;4967107;28;44746;-63
2023/07/01 10:21:24;;;;;;;0.75;0.60;;;26.60;35.00;;;;;;4944559;28;45268;-62
2023/07/01 10:23:55;;;;;;;1.48;0.90;;;26.70;34.10;;;;;;4965076;28;45865;-63
2023/07/01 10:26:43;;;;;;;1.30;0.82;;;26.70;34.80;;;;;;4928420;28;45245;-62
2023/07/01 10:29:37;;;;;;;1.48;0.90;;;26.70;34.10;;;;;;4951808;28;45213;-63
2023/07/01 10:32:09;;;;;;;1.08;0.80;;;26.70;33.90;;;;;;4954587;28;45550;-63
2023/07/01 10:34:53;;;;;;;3.10;0.93;;;26.80;34.60;;;;;;4960592;28;45773;-63
2023/07/01 10:37:19;;;;;;;2.60;0.93;;;26.70;34.00;;;;;;4947330;28;46597;-63
2023/07/01 10:39:45;;;;;;;1.88;0.80;;;26.80;34.90;;;;;;4965447;28;45588;-62
2023/07/01 10:42:29;;;;;;;2.03;1.23;;;26.80;34.90;;;;;;4964164;28;45454;-62
2023/07/01 10:45:13;;;;;;;2.00;1.08;;;26.80;33.90;;;;;;4944635;28;46304;-63
2023/07/01 10:47:44;;;;;;;7.05;1.33;;;26.80;33.60;;;;;;4934640;28;45617;-63
2023/07/01 10:50:28;;;;;;;7.22;0.90;;;26.80;34.50;;;;;;4951372;28;45193;-62
2023/07/01 10:52:59;;;;;;;1.48;1.08;;;26.90;34.50;;;;;;4969837;28;45498;-63
2023/07/01 10:55:44;;;;;;;2.38;1.30;;;26.90;34.30;;;;;;4949142;28;47004;-64
2023/07/01 10:58:26;;;;;;;3.17;1.08;;;26.90;33.10;;;;;;4970408;28;45096;-64
2023/07/01 11:00:59;;;;;;;4.40;1.50;;;26.90;33.10;;;;;;4962159;28;45184;-64
2023/07/01 11:05:59;;;;;;;1.15;1.05;;;26.90;33.40;;;;;;4967109;28;45366;-63
2023/07/01 11:08:26;;;;;;;4.25;1.17;;;26.90;34.00;;;;;;4955272;28;45384;-63
2023/07/01 11:10:51;;;;;;;1.88;1.08;;;26.90;33.90;;;;;;4968681;28;45189;-62
2023/07/01 11:13:18;;;;;;;2.00;1.50;;;26.90;33.80;;;;;;4945721;28;45259;-63
2023/07/01 11:16:04;;;;;;;4.82;1.30;;;27.00;33.70;;;;;;4952102;28;47638;-63
2023/07/01 11:18:45;;;;;;;2.17;1.20;;;27.10;32.80;;;;;;4973672;28;45152;-63
2023/07/01 11:21:12;;;;;;;4.70;1.38;;;27.00;32.90;;;;;;4976623;28;44705;-63
2023/07/01 11:23:41;;;;;;;2.20;1.40;;;27.10;33.50;;;;;;4954873;28;45209;-62
2023/07/01 11:26:07;;;;;;;2.67;1.33;;;27.10;33.30;;;;;;4954702;28;46297;-62
2023/07/01 11:28:36;;;;;;;1.65;1.10;;;27.10;33.50;;;;;;4976432;28;45262;-62
2023/07/01 11:31:16;;;;;;;1.75;1.27;;;27.10;33.10;;;;;;4951928;28;45524;-63
2023/07/01 11:33:45;;;;;;;3.22;1.30;;;27.20;32.50;;;;;;4975832;28;44894;-61
2023/07/01 11:36:14;;;;;;;2.63;1.42;;;27.20;33.00;;;;;;4971136;28;46585;-62
2023/07/01 11:38:43;;;;;;;6.20;1.80;;;27.20;33.10;;;;;;4979347;28;44818;-62
2023/07/01 11:41:09;;;;;;;2.10;1.40;;;27.20;33.20;;;;;;4959335;28;45129;-62
2023/07/01 11:43:34;;;;;;;1.65;1.30;;;27.20;33.10;;;;;;4956263;28;45068;-63
2023/07/01 11:46:00;;;;;;;4.97;1.67;;;27.20;33.70;;;;;;4950149;28;46600;-63
2023/07/01 11:48:32;;;;;;;2.47;1.40;;;27.30;33.00;;;;;;4941205;28;45303;-62
2023/07/01 11:50:58;;;;;;;3.28;1.40;;;27.30;32.80;;;;;;4956955;28;44880;-64
2023/07/01 11:53:25;;;;;;;2.25;1.42;;;27.30;33.00;;;;;;4977603;28;44797;-64
2023/07/01 11:55:51;;;;;;;2.13;1.40;;;27.30;33.00;;;;;;4966515;28;46315;-63
2023/07/01 11:58:33;;;;;;;3.40;1.25;;;27.30;33.00;;;;;;4977723;28;45355;-63
2023/07/01 12:00:59;;;;;;;2.10;1.33;;;27.30;32.30;;;;;;4955668;28;45442;-63
2023/07/01 12:03:31;;;;;;;4.65;1.70;;;27.30;33.00;;;;;;4951430;28;45290;-63
2023/07/01 12:05:57;;;;;;;3.53;1.45;;;27.40;33.10;;;;;;4929853;28;46175;-63
2023/07/01 12:08:22;;;;;;;2.38;1.50;;;27.40;33.10;;;;;;4958194;28;46112;-63
2023/07/01 12:10:48;;;;;;;2.15;1.52;;;27.40;33.10;;;;;;4968802;28;45235;-63
2023/07/01 12:13:30;;;;;;;1.77;1.20;;;27.40;33.10;;;;;;4972230;28;45188;-63
2023/07/01 12:15:57;;;;;;;1.77;1.25;;;27.50;32.50;;;;;;4940506;28;45124;-64
2023/07/01 12:18:24;;;;;;;3.28;1.60;;;27.50;33.20;;;;;;4967289;28;45263;-64
2023/07/01 12:20:50;;;;;;;1.65;1.23;;;27.50;33.20;;;;;;4933532;28;45280;-63
2023/07/01 12:23:15;;;;;;;2.88;1.35;;;27.50;33.10;;;;;;4971953;28;45168;-63
2023/07/01 12:25:41;;;;;;;1.80;1.45;;;27.50;33.00;;;;;;4966313;28;45993;-63
2023/07/01 12:28:06;;;;;;;2.55;1.65;;;27.50;32.90;;;;;;4967965;28;45872;-62
2023/07/01 12:30:32;;;;;;;3.10;1.60;;;27.50;33.00;;;;;;4960398;28;45551;-62
2023/07/01 12:32:57;;;;;;;2.33;1.25;;;27.50;33.00;;;;;;4966687;28;45324;-63
2023/07/01 12:35:23;;;;;;;1.73;1.40;;;27.60;32.90;;;;;;4967478;28;46189;-62
2023/07/01 12:37:48;;;;;;;2.30;1.60;;;27.60;32.90;;;;;;4973477;28;45422;-63
2023/07/01 12:40:14;;;;;;;6.43;1.55;;;27.60;32.80;;;;;;4947171;28;45338;-62
2023/07/01 12:42:40;;;;;;;2.30;1.48;;;27.60;32.70;;;;;;4955106;28;45378;-62
2023/07/01 12:45:06;;;;;;;4.55;1.65;;;27.60;32.60;;;;;;4970968;28;45394;-64
2023/07/01 12:47:32;;;;;;;4.00;1.58;;;27.60;32.30;;;;;;4912622;28;45886;-62
2023/07/01 12:49:57;;;;;;;9.57;1.50;;;27.70;32.50;;;;;;4972770;28;45293;-63
2023/07/01 12:52:23;;;;;;;4.78;1.50;;;27.70;32.50;;;;;;4968591;28;45224;-63
2023/07/01 12:54:48;;;;;;;4.60;1.63;;;27.70;32.50;;;;;;4953049;28;47174;-63
2023/07/01 12:57:15;;;;;;;2.42;1.60;;;27.70;32.40;;;;;;4964812;28;45366;-63
2023/07/01 12:59:47;;;;;;;1.77;1.55;;;27.70;32.50;;;;;;4975995;28;45234;-63
2023/07/01 13:02:13;;;;;;;2.78;1.70;;;27.70;32.20;;;;;;4961618;28;45276;-63
2023/07/01 13:04:39;;;;;;;4.43;1.42;;;27.80;32.40;;;;;;4950621;28;45173;-63
2023/07/01 13:07:05;;;;;;;2.83;1.73;;;27.80;32.40;;;;;;4937989;28;45566;-62
2023/07/01 13:09:41;;;;;;;5.25;1.77;;;27.80;32.30;;;;;;4975692;28;45223;-62
2023/07/01 13:12:06;;;;;;;1.88;1.60;;;27.80;31.70;;;;;;4953131;28;45431;-62
2023/07/01 13:14:32;;;;;;;2.03;1.55;;;27.80;32.10;;;;;;4975123;28;44968;-63
2023/07/01 13:16:58;;;;;;;6.72;2.00;;;27.80;32.10;;;;;;4949320;28;45244;-63
2023/07/01 13:19:23;;;;;;;3.20;1.92;;;27.80;32.10;;;;;;4955198;28;45411;-63
2023/07/01 13:21:49;;;;;;;3.22;1.70;;;27.80;32.00;;;;;;4946670;28;45610;-63
2023/07/01 13:24:14;;;;;;;2.97;1.98;;;27.80;32.00;;;;;;4973241;28;46160;-63
2023/07/01 13:26:44;;;;;;;2.30;1.88;;;27.80;32.20;;;;;;4953032;28;45183;-63
2023/07/01 13:29:17;;;;;;;4.15;2.08;;;27.80;32.20;;;;;;4957903;28;44642;-63
2023/07/01 13:31:47;;;;;;;3.50;1.33;;;27.80;32.00;;;;;;4962864;28;45304;-63
2023/07/01 13:34:13;;;;;;;2.53;1.50;;;27.80;32.10;;;;;;4974952;28;46194;-63
2023/07/01 13:36:39;;;;;;;2.83;1.45;;;27.80;32.40;;;;;;4962891;28;45054;-63
2023/07/01 13:39:08;;;;;;;2.80;1.67;;;27.80;32.30;;;;;;4975495;28;45074;-62
2023/07/01 13:41:34;;;;;;;5.28;2.13;;;27.80;32.40;;;;;;4968064;28;45232;-62
2023/07/01 13:44:19;;;;;;;2.58;1.60;;;27.80;32.50;;;;;;4975952;28;45391;-63
2023/07/01 13:46:45;;;;;;;2.22;1.50;;;27.80;32.00;;;;;;4948992;28;45546;-62
2023/07/01 13:49:10;;;;;;;2.15;1.73;;;27.80;32.60;;;;;;4967270;28;45292;-63
2023/07/01 13:51:37;;;;;;;2.28;1.83;;;27.80;32.60;;;;;;4947776;28;45191;-63
2023/07/01 13:54:04;;;;;;;4.70;1.42;;;27.80;32.70;;;;;;4970307;28;45359;-63
2023/07/01 13:56:29;;;;;;;2.25;1.45;;;27.80;32.80;;;;;;4952780;28;45276;-63
2023/07/01 13:58:55;;;;;;;2.65;1.63;;;27.80;32.80;;;;;;4974819;28;45087;-63
2023/07/01 14:01:20;;;;;;;2.67;1.73;;;27.90;33.00;;;;;;4943332;28;45676;-64
2023/07/01 14:03:48;;;;;;;5.38;1.70;;;27.80;33.10;;;;;;4972975;28;45858;-63
2023/07/01 14:06:15;;;;;;;2.42;1.50;;;27.90;33.30;;;;;;4952756;28;44694;-63
2023/07/01 14:08:40;;;;;;;2.20;1.35;;;27.90;33.40;;;;;;4920694;28;45320;-63
2023/07/01 14:11:08;;;;;;;2.70;1.40;;;27.90;33.50;;;;;;4966902;28;45241;-63
2023/07/01 14:13:33;;;;;;;3.42;1.20;;;27.90;33.60;;;;;;4971091;28;46409;-62
2023/07/01 14:15:59;;;;;;;2.72;1.38;;;27.90;33.70;;;;;;4949212;28;45884;-62
2023/07/01 14:18:26;;;;;;;3.00;1.27;;;27.90;33.80;;;;;;4971644;28;45451;-63
2023/07/01 14:21:00;;;;;;;1.70;1.25;;;27.90;33.90;;;;;;4941213;28;45135;-62
2023/07/01 14:23:34;;;;;;;3.20;1.30;;;27.90;33.90;;;;;;4969511;28;46112;-64
2023/07/01 14:26:00;;;;;;;4.50;1.60;;;27.90;34.00;;;;;;4933206;28;45701;-64
2023/07/01 14:28:26;;;;;;;2.10;1.30;;;27.90;34.10;;;;;;4955867;28;45227;-62
2023/07/01 14:31:02;;;;;;;2.78;1.40;;;27.80;34.20;;;;;;4965878;28;46909;-64
2023/07/01 14:33:34;;;;;;;2.55;1.10;;;27.80;34.40;;;;;;4970226;28;46068;-64
2023/07/01 14:36:02;;;;;;;5.33;1.57;;;27.80;34.50;;;;;;4969180;28;45058;-63
2023/07/01 14:38:39;;;;;;;2.00;1.17;;;27.80;34.60;;;;;;4941788;28;45199;-65
2023/07/01 14:41:29;;;;;;;2.15;1.20;;;27.80;34.70;;;;;;4934487;28;47502;-63
2023/07/01 14:44:02;;;;;;;1.77;1.20;;;27.80;34.90;;;;;;4957220;28;46206;-63
2023/07/01 14:46:35;;;;;;;2.38;1.17;;;27.80;34.90;;;;;;4961835;28;45306;-62
2023/07/01 14:49:00;;;;;;;4.82;1.48;;;27.80;34.90;;;;;;4968681;28;46307;-62
2023/07/01 14:51:27;;;;;;;3.80;1.40;;;27.70;35.00;;;;;;4948552;28;45311;-62
2023/07/01 14:53:52;;;;;;;4.25;1.38;;;27.80;35.10;;;;;;4962449;28;45919;-62
2023/07/01 14:56:22;;;;;;;3.45;1.30;;;27.70;35.00;;;;;;4966380;28;44974;-62
2023/07/01 14:58:48;;;;;;;1.67;1.30;;;27.80;35.10;;;;;;4971599;28;45237;-63
2023/07/01 15:01:14;;;;;;;3.42;1.20;;;27.70;35.00;;;;;;4959961;28;45205;-63
2023/07/01 15:03:40;;;;;;;4.97;1.50;;;27.70;35.00;;;;;;4967050;28;45577;-63
2023/07/01 15:06:06;;;;;;;3.05;1.27;;;27.60;35.00;;;;;;4967700;28;45439;-63
2023/07/01 15:08:32;;;;;;;2.67;1.35;;;27.70;35.10;;;;;;4970524;28;45420;-63
2023/07/01 15:10:57;;;;;;;3.03;1.27;;;27.70;35.10;;;;;;4960175;28;45663;-62
2023/07/01 15:13:23;;;;;;;2.20;1.30;;;27.60;35.10;;;;;;4967251;28;45403;-62
2023/07/01 15:15:52;;;;;;;1.67;1.10;;;27.70;35.30;;;;;;4946677;28;45270;-62
2023/07/01 15:18:18;;;;;;;1.35;1.00;;;27.70;35.30;;;;;;4969304;28;45106;-63
2023/07/01 15:20:43;;;;;;;1.42;1.02;;;27.70;35.40;;;;;;4962541;28;45197;-62
2023/07/01 15:23:09;;;;;;;2.30;1.05;;;27.70;35.50;;;;;;4954333;28;46038;-63
2023/07/01 15:25:35;;;;;;;2.40;0.95;;;27.60;35.50;;;;;;4968540;28;45253;-62
2023/07/01 15:28:01;;;;;;;3.83;0.88;;;27.60;35.60;;;;;;4940079;28;45426;-63
2023/07/01 15:30:29;;;;;;;2.58;1.08;;;27.60;35.60;;;;;;4968001;28;45336;-62
2023/07/01 15:32:55;;;;;;;2.65;0.80;;;27.60;35.50;;;;;;4969775;28;45645;-63
2023/07/01 15:35:21;;;;;;;2.53;0.88;;;27.50;35.50;;;;;;4949495;28;45607;-62
2023/07/01 15:37:47;;;;;;;1.92;1.23;;;27.60;35.60;;;;;;4976360;28;45112;-63
2023/07/01 15:40:13;;;;;;;4.60;1.20;;;27.60;36.10;;;;;;4968799;28;45188;-62
2023/07/01 15:42:39;;;;;;;3.20;1.10;;;27.60;35.50;;;;;;4968142;28;46323;-63
2023/07/01 15:45:06;;;;;;;3.25;0.93;;;27.50;35.60;;;;;;4970718;28;45743;-62
2023/07/01 15:47:32;;;;;;;1.73;1.02;;;27.50;35.60;;;;;;4951615;28;45769;-63
2023/07/01 15:49:57;;;;;;;1.08;0.98;;;27.50;35.70;;;;;;4974403;28;45319;-63
2023/07/01 15:52:23;;;;;;;2.10;1.17;;;27.50;35.70;;;;;;4970466;28;46568;-63